Tropical Cyclones
[Index]
Main Index Home Page Stock Weather Photos Extreme Storms Discussion Storm News and Storm Chasing Reports Tropical Cyclones / Hurricanes / Typhoons Weather Data and Links Wild Fires / Bushfires Weather Observation Techniques Weather Picture Catalogue Tornado Pictures and Reports Stock Video Footage and DVDs for sale
Season 1983-1984 Tropical Cyclone VIVIENNE Track Map
Season 1983-1984 Summaries: [BoM-AU] [JTWC-AU] [JTWC-SIO] [JTWC-SPAC] [JTWC-SH]
<<- Previous TC | BoM 1983-1984 Season | Next TC ->>

click for intensity scale information  Lat/long Grid: Show Hide

 Date Labels: Show Hide

Bureau of Meteorology Tropical Cyclone Data

Name: VIVIENNE
Number: 651 / 198384_10

23 Jan 1984 00:00 UTC to 27 Jan 1984 12:00 UTC

    date/time    lat    long    hPa   cat  kts
1984-01-23 00    9.0    90.9   1003                     
1984-01-23 06    9.5    90.5   1003                     
1984-01-23 12   10.2    90.4   1002                     
1984-01-23 18   11.2    90.5    995    1                
1984-01-24 00   11.9    90.5    995    1                
1984-01-24 06   13.0    90.6    995    1                
1984-01-24 12   14.1    90.5    992    1                
1984-01-24 18   14.3    88.8    990    1                
1984-01-25 00   14.1    87.8    988    1                
1984-01-25 06   14.2    86.8    984    2                
1984-01-25 12   14.5    85.5    980    2                
1984-01-25 18   15.0    85.0    980    2                
1984-01-26 00   15.3    84.4    980    2                
1984-01-26 06   15.4    83.7    980    2                
1984-01-26 12   15.6    83.2    980    2                
1984-01-26 18   15.4    82.4    980    2                
1984-01-27 00   15.3    81.6    980    2                
1984-01-27 06   15.3    80.9    975    2                
1984-01-27 12   15.4    79.9    975    2                
Winds are 10-min average.

Tropical cyclone tracks developed by Michael Bath using data from the Bureau of Meteorology and Google Maps.


[Australian Severe Weather index] [Copyright Notice] [Email Contacts] [Search This Site] [Privacy Policy]
Document: tropical_cyclone_vivienne.htm Updated: 30 May 2013